createdAt,value
2022-08-29T00:02:31.086Z,17.40
2022-08-29T00:07:31.767Z,17.30
2022-08-29T00:12:30.811Z,17.20
2022-08-29T00:17:29.841Z,17.10
2022-08-29T00:22:28.831Z,17.10
2022-08-29T00:27:31.104Z,17.00
2022-08-29T00:32:31.835Z,16.90
2022-08-29T00:37:30.758Z,16.80
2022-08-29T00:42:31.112Z,16.70
2022-08-29T00:47:29.773Z,16.70
2022-08-29T00:52:28.803Z,16.60
2022-08-29T00:57:27.853Z,16.50
2022-08-29T01:02:28.003Z,16.40
2022-08-29T01:07:26.888Z,16.30
2022-08-29T01:12:27.164Z,16.20
2022-08-29T01:17:25.933Z,16.00
2022-08-29T01:22:25.039Z,15.90
2022-08-29T01:27:23.767Z,15.90
2022-08-29T01:32:22.999Z,15.80
2022-08-29T01:37:21.967Z,15.70
2022-08-29T01:42:20.980Z,15.60
2022-08-29T01:47:19.984Z,15.50
2022-08-29T01:52:18.910Z,15.50
2022-08-29T01:57:18.744Z,15.40
2022-08-29T02:02:18.281Z,15.30
2022-08-29T02:07:17.450Z,15.40
2022-08-29T02:12:17.342Z,15.30
2022-08-29T02:17:19.573Z,15.30
2022-08-29T02:22:19.021Z,15.20
2022-08-29T02:27:17.817Z,15.20
2022-08-29T02:32:16.829Z,15.10
2022-08-29T02:37:15.948Z,15.10
2022-08-29T02:42:14.837Z,15.00
2022-08-29T02:47:13.973Z,15.00
2022-08-29T02:52:12.881Z,14.90
2022-08-29T02:57:12.385Z,14.90
2022-08-29T03:02:11.097Z,14.80
2022-08-29T03:07:09.917Z,14.80
2022-08-29T03:12:08.921Z,14.80
2022-08-29T03:17:07.884Z,14.70
2022-08-29T03:22:06.965Z,14.70
2022-08-29T03:27:06.130Z,14.60
2022-08-29T03:32:04.962Z,14.60
2022-08-29T03:37:04.036Z,14.60
2022-08-29T03:42:03.000Z,14.50
2022-08-29T03:47:01.990Z,14.50
2022-08-29T03:52:00.913Z,14.40
2022-08-29T03:56:59.872Z,14.30
2022-08-29T04:01:59.354Z,14.30
2022-08-29T04:06:58.044Z,14.20
2022-08-29T04:11:57.049Z,14.20
2022-08-29T04:16:55.857Z,14.20
2022-08-29T04:21:56.789Z,14.20
2022-08-29T04:26:55.930Z,14.20
2022-08-29T04:31:54.941Z,14.30
2022-08-29T04:36:53.889Z,14.20
2022-08-29T04:41:53.790Z,14.20
2022-08-29T04:46:52.783Z,14.10
2022-08-29T04:51:52.017Z,14.20
2022-08-29T04:56:50.890Z,14.20
2022-08-29T05:01:52.112Z,14.20
2022-08-29T05:06:50.901Z,14.30
2022-08-29T05:11:49.909Z,14.30
2022-08-29T05:16:48.909Z,14.50
2022-08-29T05:21:49.475Z,14.60
2022-08-29T05:26:48.898Z,14.70
2022-08-29T05:31:49.048Z,14.80
2022-08-29T05:36:48.044Z,14.80
2022-08-29T05:41:47.054Z,14.90
2022-08-29T05:46:46.033Z,15.00
2022-08-29T05:51:45.066Z,15.10
2022-08-29T05:56:44.334Z,15.20
2022-08-29T06:01:43.089Z,15.40
2022-08-29T06:06:42.110Z,15.60
2022-08-29T06:11:40.921Z,15.90
2022-08-29T06:16:40.121Z,16.20
2022-08-29T06:21:39.121Z,16.50
2022-08-29T06:26:38.133Z,16.80
2022-08-29T06:31:36.928Z,17.10
2022-08-29T06:36:37.201Z,17.30
2022-08-29T06:41:36.487Z,17.40
2022-08-29T06:46:35.097Z,17.50
2022-08-29T06:51:34.122Z,17.50
2022-08-29T06:56:33.137Z,17.50
2022-08-29T07:01:34.394Z,17.50
2022-08-29T07:06:34.118Z,17.70
2022-08-29T07:11:36.516Z,17.70
2022-08-29T07:16:34.482Z,17.80
2022-08-29T07:21:33.001Z,17.80
2022-08-29T07:26:32.000Z,18.00
2022-08-29T07:31:31.376Z,18.10
2022-08-29T07:36:30.880Z,18.30
2022-08-29T07:41:30.064Z,18.40
2022-08-29T07:46:29.046Z,18.70
2022-08-29T07:51:28.083Z,19.00
2022-08-29T07:56:27.256Z,19.20
2022-08-29T08:01:26.195Z,19.40
2022-08-29T08:06:27.284Z,19.60
2022-08-29T08:11:26.185Z,19.90
2022-08-29T08:16:25.200Z,20.10
2022-08-29T08:21:24.154Z,20.40
2022-08-29T08:26:23.401Z,20.80
2022-08-29T08:31:22.138Z,21.40
2022-08-29T08:36:21.241Z,21.80
2022-08-29T08:41:22.881Z,21.80
2022-08-29T08:46:21.167Z,22.00
2022-08-29T08:51:20.011Z,22.30
2022-08-29T08:56:19.160Z,22.40
2022-08-29T09:01:18.119Z,22.40
2022-08-29T09:06:17.264Z,22.30
2022-08-29T09:11:17.637Z,22.20
2022-08-29T09:16:17.061Z,22.30
2022-08-29T09:21:39.428Z,22.60
2022-08-29T09:26:17.227Z,22.70
2022-08-29T09:31:16.417Z,22.90
2022-08-29T09:36:14.969Z,23.10
2022-08-29T09:41:14.776Z,23.00
2022-08-29T09:46:15.904Z,23.10
2022-08-29T09:51:15.215Z,23.20
2022-08-29T09:56:15.355Z,23.30
2022-08-29T10:01:14.143Z,23.50
2022-08-29T10:06:13.259Z,23.60
2022-08-29T10:11:12.284Z,23.80
2022-08-29T10:16:11.146Z,23.90
2022-08-29T10:21:10.097Z,24.10
2022-08-29T10:26:09.009Z,24.30
2022-08-29T10:31:08.416Z,24.20
2022-08-29T10:36:07.108Z,24.40
2022-08-29T10:41:07.043Z,24.40
2022-08-29T10:46:06.225Z,24.40
2022-08-29T10:51:05.475Z,24.40
2022-08-29T10:56:06.925Z,24.50
2022-08-29T11:01:09.071Z,24.70
2022-08-29T11:06:06.635Z,25.00
2022-08-29T11:11:05.223Z,25.10
2022-08-29T11:16:04.210Z,25.40
2022-08-29T11:21:03.048Z,25.80
2022-08-29T11:26:02.264Z,26.20
2022-08-29T11:31:01.129Z,26.40
2022-08-29T11:36:04.192Z,26.50
2022-08-29T11:46:03.119Z,26.20
2022-08-29T11:51:02.147Z,26.20
2022-08-29T11:56:01.043Z,26.40
2022-08-29T12:01:00.126Z,26.90
2022-08-29T12:05:59.242Z,27.40
2022-08-29T12:10:58.184Z,27.30
2022-08-29T12:15:57.116Z,27.20
2022-08-29T12:20:56.949Z,27.00
2022-08-29T12:26:15.878Z,26.80
2022-08-29T12:30:57.100Z,26.30
2022-08-29T12:35:59.081Z,26.00
2022-08-29T12:40:58.227Z,25.80
2022-08-29T12:45:57.205Z,25.30
2022-08-29T12:50:56.221Z,25.30
2022-08-29T12:55:55.614Z,25.40
2022-08-29T13:00:55.423Z,25.70
2022-08-29T13:05:54.218Z,25.80
2022-08-29T13:10:53.190Z,25.60
2022-08-29T13:15:52.249Z,25.20
2022-08-29T13:20:51.205Z,25.00
2022-08-29T13:25:50.221Z,24.90
2022-08-29T13:30:49.185Z,25.30
2022-08-29T13:35:48.234Z,25.80
2022-08-29T13:40:47.272Z,26.10
2022-08-29T13:45:46.171Z,26.30
2022-08-29T13:50:45.186Z,26.50
2022-08-29T13:55:44.217Z,26.60
2022-08-29T14:00:43.939Z,26.80
2022-08-29T14:05:43.225Z,26.90
2022-08-29T14:10:42.233Z,27.00
2022-08-29T14:15:41.508Z,26.90
2022-08-29T14:20:40.364Z,26.90
2022-08-29T14:25:39.278Z,26.80
2022-08-29T14:30:38.285Z,26.40
2022-08-29T14:35:37.189Z,26.60
2022-08-29T14:40:38.323Z,26.70
2022-08-29T14:45:38.393Z,26.70
2022-08-29T14:50:40.486Z,26.80
2022-08-29T14:55:39.281Z,26.90
2022-08-29T15:00:38.600Z,26.90
2022-08-29T15:05:37.300Z,27.10
2022-08-29T15:10:36.347Z,27.30
2022-08-29T15:15:37.391Z,27.50
2022-08-29T15:20:42.667Z,27.70
2022-08-29T15:25:40.205Z,27.50
2022-08-29T15:30:41.853Z,27.30
2022-08-29T15:35:41.421Z,27.30
2022-08-29T15:40:40.381Z,27.10
2022-08-29T15:45:39.410Z,27.00
2022-08-29T15:50:40.270Z,27.10
2022-08-29T15:55:43.832Z,27.10
2022-08-29T16:00:40.236Z,27.20
2022-08-29T16:05:40.286Z,27.30
2022-08-29T16:10:39.487Z,27.40
2022-08-29T16:15:38.426Z,27.40
2022-08-29T16:20:41.361Z,27.20
2022-08-29T16:25:39.545Z,26.80
2022-08-29T16:30:44.546Z,26.80
2022-08-29T16:35:39.277Z,26.80
2022-08-29T16:40:38.347Z,26.70
2022-08-29T16:45:37.884Z,26.60
2022-08-29T16:50:36.314Z,26.40
2022-08-29T16:55:35.297Z,26.20
2022-08-29T17:00:34.324Z,26.10
2022-08-29T17:05:33.346Z,26.30
2022-08-29T17:10:31.815Z,26.40
2022-08-29T17:15:29.801Z,26.30
2022-08-29T17:20:28.310Z,26.00
2022-08-29T17:25:27.461Z,25.90
2022-08-29T17:30:26.410Z,25.80
2022-08-29T17:35:25.469Z,25.70
2022-08-29T17:40:24.958Z,25.50
2022-08-29T17:45:25.529Z,25.10
2022-08-29T17:50:24.822Z,24.80
2022-08-29T17:55:23.319Z,24.60
2022-08-29T18:00:25.028Z,24.40
2022-08-29T18:05:24.595Z,24.20
2022-08-29T18:10:23.631Z,24.00
2022-08-29T18:15:23.669Z,23.80
2022-08-29T18:20:23.383Z,23.70
2022-08-29T18:25:22.957Z,23.40
2022-08-29T18:30:22.555Z,23.20
2022-08-29T18:35:21.659Z,23.00
2022-08-29T18:40:20.645Z,22.80
2022-08-29T18:45:19.608Z,22.60
2022-08-29T18:50:47.018Z,22.50
2022-08-29T18:55:51.036Z,22.30
2022-08-29T19:00:48.668Z,22.20
2022-08-29T19:05:48.939Z,22.10
2022-08-29T19:10:47.611Z,22.00
2022-08-29T19:15:47.019Z,21.90
2022-08-29T19:21:09.475Z,21.80
2022-08-29T19:26:08.629Z,21.60
2022-08-29T19:31:07.439Z,21.60
2022-08-29T19:36:06.636Z,21.50
2022-08-29T19:41:05.493Z,21.60
2022-08-29T19:46:04.830Z,21.60
2022-08-29T19:51:04.502Z,21.60
2022-08-29T19:56:03.509Z,21.60
2022-08-29T20:01:03.542Z,21.50
2022-08-29T20:06:04.443Z,21.40
2022-08-29T20:11:03.944Z,21.40
2022-08-29T20:16:04.705Z,21.30
2022-08-29T20:21:03.680Z,21.20
2022-08-29T20:26:02.729Z,21.10
2022-08-29T20:31:01.808Z,21.10
2022-08-29T20:36:19.652Z,21.10
2022-08-29T20:41:21.247Z,21.00
2022-08-29T20:46:19.676Z,21.00
2022-08-29T20:51:18.629Z,20.90
2022-08-29T20:56:17.652Z,20.90
2022-08-29T21:01:16.701Z,20.90
2022-08-29T21:06:15.567Z,20.90
2022-08-29T21:11:15.245Z,20.90
2022-08-29T21:16:14.768Z,20.90
2022-08-29T21:21:13.708Z,20.90
2022-08-29T21:26:13.427Z,20.80
2022-08-29T21:31:12.618Z,20.80
2022-08-29T21:36:11.564Z,20.80
2022-08-29T21:41:11.267Z,20.80
2022-08-29T21:46:10.671Z,20.90
2022-08-29T21:51:09.783Z,20.90
2022-08-29T21:56:08.734Z,21.00
2022-08-29T22:01:09.535Z,21.00
2022-08-29T22:06:09.303Z,21.10
2022-08-29T22:11:11.293Z,21.10
2022-08-29T22:16:29.235Z,21.10
2022-08-29T22:21:28.688Z,21.10
2022-08-29T22:26:27.590Z,21.10
2022-08-29T22:31:26.754Z,21.00
2022-08-29T22:36:25.577Z,21.00
2022-08-29T22:41:24.826Z,20.90
2022-08-29T22:46:23.698Z,20.90
2022-08-29T22:51:22.769Z,20.90
2022-08-29T22:56:21.783Z,20.90
2022-08-29T23:01:21.146Z,20.80
2022-08-29T23:06:20.805Z,20.70
2022-08-29T23:11:19.815Z,20.80
2022-08-29T23:16:18.681Z,20.70
2022-08-29T23:21:17.711Z,20.70
2022-08-29T23:26:17.685Z,20.80
2022-08-29T23:31:16.710Z,20.80
2022-08-29T23:36:15.826Z,20.80
2022-08-29T23:41:15.376Z,20.90
2022-08-29T23:46:14.934Z,20.80
2022-08-29T23:51:14.369Z,20.80
2022-08-29T23:56:13.780Z,20.70
